createdAt,value
2017-12-01T00:02:21.196Z,21.58
2017-12-01T00:04:48.169Z,22.60
2017-12-01T00:07:15.048Z,21.10
2017-12-01T00:09:41.931Z,22.65
2017-12-01T00:12:08.817Z,20.05
2017-12-01T00:14:35.763Z,19.00
2017-12-01T00:17:02.701Z,24.60
2017-12-01T00:19:29.548Z,19.65
2017-12-01T00:21:56.408Z,23.23
2017-12-01T00:24:24.356Z,22.37
2017-12-01T00:26:51.191Z,20.40
2017-12-01T00:29:18.208Z,20.52
2017-12-01T00:31:45.801Z,20.62
2017-12-01T00:34:12.696Z,22.80
2017-12-01T00:36:40.435Z,21.20
2017-12-01T00:39:08.832Z,18.27
2017-12-01T00:41:35.736Z,19.02
2017-12-01T00:44:02.612Z,18.85
2017-12-01T00:46:29.639Z,17.25
2017-12-01T00:48:56.548Z,17.27
2017-12-01T00:51:24.175Z,14.85
2017-12-01T00:53:51.124Z,13.55
2017-12-01T00:56:18.123Z,12.05
2017-12-01T00:58:45.007Z,10.27
2017-12-01T01:01:11.979Z,10.65
2017-12-01T01:03:39.681Z,10.85
2017-12-01T01:06:06.671Z,11.32
2017-12-01T01:08:33.604Z,10.55
2017-12-01T01:11:00.464Z,9.23
2017-12-01T01:13:27.346Z,10.98
2017-12-01T01:15:54.267Z,9.70
2017-12-01T01:18:21.179Z,9.35
2017-12-01T01:20:48.088Z,7.15
2017-12-01T01:23:15.027Z,6.50
2017-12-01T01:25:43.040Z,7.03
2017-12-01T01:28:09.939Z,7.85
2017-12-01T01:30:36.823Z,7.35
2017-12-01T01:33:03.699Z,9.50
2017-12-01T01:35:30.679Z,8.70
2017-12-01T01:37:57.576Z,7.68
2017-12-01T01:40:24.510Z,9.13
2017-12-01T01:42:51.432Z,8.68
2017-12-01T01:45:18.371Z,9.88
2017-12-01T01:47:45.309Z,8.88
2017-12-01T01:50:12.236Z,7.80
2017-12-01T01:52:39.191Z,8.02
2017-12-01T01:55:06.192Z,7.18
2017-12-01T01:57:33.871Z,7.60
2017-12-01T02:00:00.819Z,7.95
2017-12-01T02:02:27.715Z,7.78
2017-12-01T02:04:54.716Z,7.30
2017-12-01T02:07:22.349Z,7.50
2017-12-01T02:09:50.012Z,6.30
2017-12-01T02:12:16.968Z,6.90
2017-12-01T02:14:44.684Z,5.20
2017-12-01T02:17:11.576Z,5.18
2017-12-01T02:19:39.355Z,5.57
2017-12-01T02:22:06.988Z,6.12
2017-12-01T02:24:34.031Z,6.93
2017-12-01T02:27:00.932Z,7.20
2017-12-01T02:29:27.895Z,6.85
2017-12-01T02:31:54.852Z,6.80
2017-12-01T02:34:21.785Z,7.90
2017-12-01T02:36:48.720Z,7.32
2017-12-01T02:39:15.643Z,6.65
2017-12-01T02:41:43.334Z,7.97
2017-12-01T02:44:10.275Z,7.60
2017-12-01T02:46:37.318Z,6.87
2017-12-01T02:49:04.298Z,6.57
2017-12-01T02:51:31.184Z,5.65
2017-12-01T02:53:58.880Z,6.45
2017-12-01T02:56:25.852Z,7.95
2017-12-01T02:58:53.557Z,7.72
2017-12-01T03:01:20.508Z,7.37
2017-12-01T03:03:47.421Z,7.32
2017-12-01T03:06:15.208Z,8.38
2017-12-01T03:08:42.116Z,10.05
2017-12-01T03:11:09.760Z,7.10
2017-12-01T03:13:36.739Z,7.50
2017-12-01T03:16:04.478Z,7.55
2017-12-01T03:18:31.388Z,8.38
2017-12-01T03:20:58.431Z,9.82
2017-12-01T03:23:25.384Z,11.50
2017-12-01T03:25:52.361Z,9.85
2017-12-01T03:28:19.283Z,9.52
2017-12-01T03:30:46.233Z,9.95
2017-12-01T03:33:13.171Z,10.13
2017-12-01T03:35:40.110Z,8.80
2017-12-01T03:38:07.064Z,9.25
2017-12-01T03:40:34.012Z,8.50
2017-12-01T03:43:00.957Z,9.57
2017-12-01T03:45:27.999Z,8.73
2017-12-01T03:47:54.946Z,11.15
2017-12-01T03:50:21.878Z,8.50
2017-12-01T03:52:48.808Z,8.77
2017-12-01T03:55:15.783Z,8.85
2017-12-01T03:57:43.513Z,8.32
2017-12-01T04:00:10.467Z,6.80
2017-12-01T04:02:37.446Z,7.95
2017-12-01T04:05:04.520Z,7.45
2017-12-01T04:07:31.523Z,6.07
2017-12-01T04:09:59.139Z,6.53
2017-12-01T04:12:26.094Z,7.85
2017-12-01T04:14:53.099Z,6.65
2017-12-01T04:17:20.059Z,6.40
2017-12-01T04:19:47.760Z,7.20
2017-12-01T04:22:14.720Z,6.28
2017-12-01T04:24:41.672Z,6.35
2017-12-01T04:27:08.632Z,5.93
2017-12-01T04:29:35.600Z,6.47
2017-12-01T04:32:03.349Z,4.60
2017-12-01T04:34:30.608Z,5.50
2017-12-01T04:36:57.527Z,6.28
2017-12-01T04:39:24.549Z,7.22
2017-12-01T04:41:51.463Z,5.60
2017-12-01T04:44:18.458Z,6.35
2017-12-01T04:46:45.381Z,10.63
2017-12-01T04:49:13.073Z,13.27
2017-12-01T04:51:40.099Z,13.77
2017-12-01T04:54:07.080Z,7.28
2017-12-01T04:56:34.156Z,5.22
2017-12-01T04:59:01.840Z,5.40
2017-12-01T05:01:29.533Z,5.87
2017-12-01T05:03:56.548Z,5.28
2017-12-01T05:06:24.615Z,4.35
2017-12-01T05:08:51.628Z,4.10
2017-12-01T05:11:18.548Z,3.97
2017-12-01T05:13:45.555Z,3.92
2017-12-01T05:16:12.603Z,3.95
2017-12-01T05:18:40.283Z,3.50
2017-12-01T05:21:07.227Z,4.07
2017-12-01T05:23:35.728Z,3.85
2017-12-01T05:26:02.696Z,3.87
2017-12-01T05:28:29.816Z,4.30
2017-12-01T05:30:57.348Z,4.85
2017-12-01T05:33:24.400Z,5.85
2017-12-01T05:35:51.524Z,7.32
2017-12-01T05:38:18.576Z,5.68
2017-12-01T05:40:45.801Z,5.60
2017-12-01T05:43:23.815Z,5.45
2017-12-01T05:45:50.850Z,4.87
2017-12-01T05:48:17.812Z,6.37
2017-12-01T05:50:44.709Z,5.62
2017-12-01T05:53:11.708Z,6.85
2017-12-01T05:55:39.351Z,6.12
2017-12-01T05:58:06.479Z,5.10
2017-12-01T06:00:33.735Z,5.28
2017-12-01T06:03:00.691Z,6.40
2017-12-01T06:05:27.747Z,5.70
2017-12-01T06:07:54.667Z,6.82
2017-12-01T06:10:22.364Z,5.55
2017-12-01T06:12:49.316Z,6.97
2017-12-01T06:15:16.319Z,5.95
2017-12-01T06:17:43.276Z,6.50
2017-12-01T06:20:10.200Z,4.85
2017-12-01T06:22:37.127Z,5.53
2017-12-01T06:25:04.323Z,5.25
2017-12-01T06:27:31.211Z,6.22
2017-12-01T06:29:58.132Z,4.75
2017-12-01T06:32:25.836Z,5.12
2017-12-01T06:34:52.823Z,5.62
2017-12-01T06:37:19.832Z,5.37
2017-12-01T06:39:46.731Z,5.40
2017-12-01T06:42:13.820Z,6.57
2017-12-01T06:44:40.831Z,6.37
2017-12-01T06:47:07.721Z,6.40
2017-12-01T06:49:34.631Z,7.37
2017-12-01T06:52:02.313Z,8.00
2017-12-01T06:54:29.294Z,7.55
2017-12-01T06:56:56.472Z,8.45
2017-12-01T06:59:23.823Z,7.40
2017-12-01T07:01:50.737Z,8.40
2017-12-01T07:04:17.667Z,8.90
2017-12-01T07:06:44.696Z,10.10
2017-12-01T07:09:11.611Z,9.82
2017-12-01T07:11:38.468Z,7.80
2017-12-01T07:14:05.394Z,10.07
2017-12-01T07:16:32.270Z,9.68
2017-12-01T07:18:59.328Z,8.98
2017-12-01T07:21:26.205Z,9.05
2017-12-01T07:23:53.066Z,8.77
2017-12-01T07:26:32.243Z,8.25
2017-12-01T07:28:59.163Z,7.78
2017-12-01T07:31:26.824Z,6.85
2017-12-01T07:33:54.420Z,6.20
2017-12-01T07:36:21.355Z,5.30
2017-12-01T07:38:48.311Z,5.55
2017-12-01T07:41:15.215Z,5.00
2017-12-01T07:43:43.047Z,8.20
2017-12-01T07:46:10.334Z,8.55
2017-12-01T07:48:37.346Z,7.28
2017-12-01T07:51:04.480Z,6.80
2017-12-01T07:53:31.519Z,6.87
2017-12-01T07:55:58.682Z,4.30
2017-12-01T07:58:26.359Z,4.90
2017-12-01T08:00:53.291Z,4.87
2017-12-01T08:03:20.206Z,4.15
2017-12-01T08:05:47.168Z,5.25
2017-12-01T08:08:14.489Z,5.05
2017-12-01T08:10:41.405Z,5.87
2017-12-01T08:13:08.312Z,4.50
2017-12-01T08:15:35.347Z,5.40
2017-12-01T08:18:14.536Z,5.82
2017-12-01T08:20:42.239Z,6.20
2017-12-01T08:23:09.332Z,5.43
2017-12-01T08:25:36.535Z,5.55
2017-12-01T08:28:03.440Z,4.85
2017-12-01T08:30:31.207Z,4.97
2017-12-01T08:32:58.039Z,5.90
2017-12-01T08:35:24.908Z,5.45
2017-12-01T08:37:52.579Z,5.25
2017-12-01T08:40:19.679Z,5.75
2017-12-01T08:42:47.412Z,11.43
2017-12-01T08:45:14.480Z,6.93
2017-12-01T08:47:41.407Z,6.68
2017-12-01T08:50:08.291Z,6.75
2017-12-01T08:52:35.196Z,7.18
2017-12-01T08:55:03.610Z,6.43
2017-12-01T08:57:31.348Z,6.40
2017-12-01T08:59:58.267Z,5.45
2017-12-01T09:02:25.188Z,6.35
2017-12-01T09:04:52.908Z,6.30
2017-12-01T09:07:19.797Z,5.87
2017-12-01T09:09:47.443Z,5.68
2017-12-01T09:12:14.344Z,6.97
2017-12-01T09:14:41.296Z,7.57
2017-12-01T09:17:08.222Z,6.62
2017-12-01T09:19:35.163Z,6.45
2017-12-01T09:22:02.815Z,6.18
2017-12-01T09:24:30.909Z,5.93
2017-12-01T09:26:59.215Z,5.78
2017-12-01T09:29:27.096Z,5.25
2017-12-01T09:31:54.023Z,4.30
2017-12-01T09:34:20.947Z,4.62
2017-12-01T09:36:47.998Z,4.12
2017-12-01T09:39:14.899Z,4.93
2017-12-01T09:41:42.557Z,3.90
2017-12-01T09:44:10.234Z,3.90
2017-12-01T09:46:37.223Z,3.97
2017-12-01T09:49:04.148Z,4.30
2017-12-01T09:51:31.231Z,3.83
2017-12-01T09:53:58.235Z,4.20
2017-12-01T09:56:25.238Z,4.50
2017-12-01T09:58:52.856Z,4.35
2017-12-01T10:01:19.734Z,4.05
2017-12-01T10:03:46.672Z,4.65
2017-12-01T10:06:14.411Z,4.45
2017-12-01T10:08:41.307Z,3.62
2017-12-01T10:11:08.955Z,5.10
2017-12-01T10:13:36.028Z,4.70
2017-12-01T10:16:03.332Z,4.30
2017-12-01T10:18:30.316Z,4.78
2017-12-01T10:20:57.375Z,5.07
2017-12-01T10:23:25.131Z,5.37
2017-12-01T10:25:53.193Z,6.20
2017-12-01T10:28:20.231Z,5.75
2017-12-01T10:30:47.124Z,4.78
2017-12-01T10:33:14.066Z,5.50
2017-12-01T10:35:41.704Z,5.25
2017-12-01T10:38:09.689Z,5.70
2017-12-01T10:40:36.960Z,5.12
2017-12-01T10:43:04.659Z,6.15
2017-12-01T10:45:31.583Z,6.00
2017-12-01T10:48:00.338Z,4.37
2017-12-01T10:50:28.287Z,5.68
2017-12-01T10:52:55.175Z,5.65
2017-12-01T10:55:22.099Z,7.82
2017-12-01T10:57:49.067Z,8.52
2017-12-01T11:00:15.969Z,9.23
2017-12-01T11:02:43.580Z,7.25
2017-12-01T11:05:10.497Z,7.12
2017-12-01T11:07:37.395Z,8.25
2017-12-01T11:10:04.283Z,8.85
2017-12-01T11:12:31.864Z,8.48
2017-12-01T11:14:58.758Z,9.65
2017-12-01T11:17:25.671Z,9.52
2017-12-01T11:19:52.569Z,9.65
2017-12-01T11:22:19.424Z,9.60
2017-12-01T11:24:46.363Z,9.05
2017-12-01T11:27:13.223Z,7.30
2017-12-01T11:29:40.067Z,9.10
2017-12-01T11:32:08.239Z,9.13
2017-12-01T11:34:35.166Z,9.93
2017-12-01T11:37:02.076Z,8.80
2017-12-01T11:39:29.695Z,9.38
2017-12-01T11:41:56.533Z,9.38
2017-12-01T11:44:23.384Z,9.15
2017-12-01T11:46:50.283Z,9.57
2017-12-01T11:49:17.876Z,9.93
2017-12-01T11:51:44.761Z,10.45
2017-12-01T11:54:11.678Z,11.07
2017-12-01T11:56:38.616Z,11.15
2017-12-01T11:59:06.265Z,11.05
2017-12-01T12:01:33.197Z,12.70
2017-12-01T12:04:00.126Z,11.15
2017-12-01T12:06:27.111Z,11.18
2017-12-01T12:08:54.043Z,11.82
2017-12-01T12:11:21.215Z,11.30
2017-12-01T12:13:48.232Z,10.70
2017-12-01T12:16:15.979Z,11.15
2017-12-01T12:18:42.882Z,10.75
2017-12-01T12:21:09.852Z,13.52
2017-12-01T12:23:37.531Z,12.57
2017-12-01T12:26:05.215Z,12.30
2017-12-01T12:28:33.216Z,12.73
2017-12-01T12:31:00.445Z,11.15
2017-12-01T12:33:29.431Z,11.15
2017-12-01T12:35:56.612Z,11.73
2017-12-01T12:38:23.640Z,13.32
2017-12-01T12:40:50.833Z,13.35
2017-12-01T12:43:17.819Z,12.65
2017-12-01T12:45:44.810Z,12.25
2017-12-01T12:48:12.031Z,12.35
2017-12-01T12:50:39.053Z,12.43
2017-12-01T12:53:06.728Z,11.90
2017-12-01T12:55:33.815Z,12.77
2017-12-01T12:58:01.039Z,13.70
2017-12-01T13:00:28.047Z,12.80
2017-12-01T13:02:54.968Z,13.02
2017-12-01T13:05:21.883Z,11.10
2017-12-01T13:07:48.900Z,12.68
2017-12-01T13:10:15.812Z,11.57
2017-12-01T13:12:42.846Z,10.55
2017-12-01T13:15:09.892Z,11.88
2017-12-01T13:17:36.791Z,12.93
2017-12-01T13:20:04.496Z,11.32
2017-12-01T13:22:31.424Z,12.25
2017-12-01T13:24:58.347Z,13.20
2017-12-01T13:27:25.274Z,11.12
2017-12-01T13:29:52.935Z,12.35
2017-12-01T13:32:20.568Z,12.60
2017-12-01T13:34:47.551Z,10.20
2017-12-01T13:37:14.473Z,9.02
2017-12-01T13:39:42.139Z,10.52
2017-12-01T13:42:09.863Z,9.20
2017-12-01T13:44:37.632Z,10.50
2017-12-01T13:47:04.576Z,12.23
2017-12-01T13:49:31.708Z,10.98
2017-12-01T13:51:58.696Z,10.50
2017-12-01T13:54:25.710Z,10.57
2017-12-01T13:56:52.619Z,9.80
2017-12-01T13:59:20.207Z,9.50
2017-12-01T14:01:47.591Z,10.80
2017-12-01T14:04:15.327Z,9.82
2017-12-01T14:06:42.211Z,11.45
2017-12-01T14:09:09.076Z,12.02
2017-12-01T14:11:36.667Z,10.43
2017-12-01T14:14:04.030Z,11.15
2017-12-01T14:16:30.935Z,10.80
2017-12-01T14:18:58.571Z,11.35
2017-12-01T14:21:25.447Z,11.65
2017-12-01T14:23:53.028Z,10.18
2017-12-01T14:26:19.968Z,9.77
2017-12-01T14:28:46.828Z,10.32
2017-12-01T14:31:13.690Z,10.95
2017-12-01T14:33:40.568Z,11.23
2017-12-01T14:36:07.534Z,9.63
2017-12-01T14:38:34.400Z,11.77
2017-12-01T14:41:01.335Z,10.80
2017-12-01T14:43:28.256Z,10.57
2017-12-01T14:45:55.188Z,11.23
2017-12-01T14:48:22.051Z,11.45
2017-12-01T14:50:48.971Z,9.75
2017-12-01T14:53:16.576Z,10.98
2017-12-01T14:55:43.511Z,10.98
2017-12-01T14:58:10.405Z,11.05
2017-12-01T15:00:37.268Z,10.60
2017-12-01T15:03:04.384Z,12.57
2017-12-01T15:05:31.244Z,9.93
2017-12-01T15:07:58.090Z,11.10
2017-12-01T15:10:24.976Z,12.25
2017-12-01T15:12:51.873Z,11.73
2017-12-01T15:15:19.800Z,12.63
2017-12-01T15:17:46.667Z,11.93
2017-12-01T15:20:13.562Z,12.80
2017-12-01T15:22:41.132Z,13.88
2017-12-01T15:25:08.008Z,12.82
2017-12-01T15:27:34.898Z,13.15
2017-12-01T15:30:01.780Z,13.23
2017-12-01T15:32:28.684Z,12.50
2017-12-01T15:34:56.451Z,12.88
2017-12-01T15:37:23.383Z,13.20
2017-12-01T15:39:50.984Z,15.68
2017-12-01T15:42:17.930Z,19.27
2017-12-01T15:44:44.912Z,19.00
2017-12-01T15:47:11.967Z,16.58
2017-12-01T15:49:40.764Z,17.05
2017-12-01T15:52:08.564Z,16.62
2017-12-01T15:54:35.489Z,17.62
2017-12-01T15:57:02.407Z,16.40
2017-12-01T15:59:30.148Z,17.60
2017-12-01T16:01:57.080Z,16.65
2017-12-01T16:04:24.032Z,16.52
2017-12-01T16:06:50.999Z,15.30
2017-12-01T16:09:17.972Z,15.40
2017-12-01T16:11:44.945Z,17.33
2017-12-01T16:14:11.845Z,16.05
2017-12-01T16:16:38.835Z,17.50
2017-12-01T16:19:05.777Z,15.63
2017-12-01T16:21:32.680Z,17.75
2017-12-01T16:23:59.659Z,16.83
2017-12-01T16:26:27.276Z,24.75
2017-12-01T16:28:54.187Z,30.17
2017-12-01T16:31:21.095Z,32.33
2017-12-01T16:33:48.778Z,31.05
2017-12-01T16:36:15.691Z,30.27
2017-12-01T16:38:43.335Z,29.00
2017-12-01T16:41:10.256Z,28.12
2017-12-01T16:43:37.130Z,27.00
2017-12-01T16:46:04.040Z,29.37
2017-12-01T16:48:30.935Z,25.92
2017-12-01T16:50:58.607Z,25.98
2017-12-01T16:53:26.270Z,27.98
2017-12-01T16:55:53.219Z,27.92
2017-12-01T16:58:20.155Z,29.23
2017-12-01T17:00:47.107Z,28.35
2017-12-01T17:03:14.735Z,33.80
2017-12-01T17:05:41.686Z,32.15
2017-12-01T17:08:08.604Z,36.00
2017-12-01T17:10:35.593Z,33.03
2017-12-01T17:13:03.288Z,30.05
2017-12-01T17:15:30.220Z,28.90
2017-12-01T17:17:57.344Z,29.27
2017-12-01T17:20:24.992Z,30.05
2017-12-01T17:22:51.901Z,29.77
2017-12-01T17:25:18.836Z,33.83
2017-12-01T17:27:45.751Z,27.75
2017-12-01T17:30:13.540Z,28.02
2017-12-01T17:32:40.447Z,26.55
2017-12-01T17:35:08.139Z,25.60
2017-12-01T17:37:35.070Z,29.35
2017-12-01T17:40:02.712Z,28.92
2017-12-01T17:42:29.620Z,28.62
2017-12-01T17:44:56.535Z,27.70
2017-12-01T17:47:23.510Z,26.52
2017-12-01T17:49:50.440Z,27.02
2017-12-01T17:52:17.334Z,27.48
2017-12-01T17:54:45.029Z,26.92
2017-12-01T17:57:11.971Z,28.10
2017-12-01T17:59:39.616Z,28.15
2017-12-01T18:02:06.572Z,28.75
2017-12-01T18:04:33.476Z,28.65
2017-12-01T18:07:00.618Z,28.58
2017-12-01T18:09:27.502Z,27.60
2017-12-01T18:11:55.144Z,26.42
2017-12-01T18:14:22.807Z,25.98
2017-12-01T18:16:50.463Z,26.40
2017-12-01T18:19:17.536Z,25.00
2017-12-01T18:21:44.470Z,27.35
2017-12-01T18:24:11.387Z,25.35
2017-12-01T18:26:38.311Z,25.37
2017-12-01T18:29:05.199Z,25.00
2017-12-01T18:31:32.078Z,25.62
2017-12-01T18:33:59.003Z,27.13
2017-12-01T18:36:25.974Z,24.98
2017-12-01T18:38:52.901Z,28.15
2017-12-01T18:41:20.553Z,25.98
2017-12-01T18:43:48.207Z,26.33
2017-12-01T18:46:15.872Z,25.83
2017-12-01T18:48:43.524Z,25.35
2017-12-01T18:51:11.291Z,24.20
2017-12-01T18:53:39.003Z,24.65
2017-12-01T18:56:05.883Z,27.50
2017-12-01T18:58:32.824Z,24.75
2017-12-01T19:00:59.704Z,26.48
2017-12-01T19:03:27.338Z,24.90
2017-12-01T19:05:54.243Z,27.75
2017-12-01T19:08:21.187Z,25.10
2017-12-01T19:10:48.180Z,26.73
2017-12-01T19:13:15.091Z,25.67
2017-12-01T19:15:42.055Z,25.12
2017-12-01T19:18:08.979Z,26.67
2017-12-01T19:20:36.003Z,26.23
2017-12-01T19:23:02.911Z,27.50
2017-12-01T19:25:30.601Z,24.65
2017-12-01T19:27:57.556Z,25.12
2017-12-01T19:30:24.480Z,26.42
2017-12-01T19:32:51.434Z,24.35
2017-12-01T19:35:19.095Z,24.30
2017-12-01T19:37:46.024Z,25.08
2017-12-01T19:40:12.935Z,24.20
2017-12-01T19:42:40.644Z,28.30
2017-12-01T19:45:07.610Z,27.25
2017-12-01T19:47:34.511Z,27.48
2017-12-01T19:50:02.167Z,30.02
2017-12-01T19:52:29.868Z,31.42
2017-12-01T19:54:56.812Z,29.75
2017-12-01T19:57:23.715Z,32.33
2017-12-01T19:59:50.643Z,31.98
2017-12-01T20:02:17.560Z,30.90
2017-12-01T20:04:44.440Z,32.97
2017-12-01T20:07:11.372Z,31.52
2017-12-01T20:09:38.298Z,29.95
2017-12-01T20:12:05.955Z,29.27
2017-12-01T20:14:32.816Z,30.27
2017-12-01T20:16:59.743Z,30.60
2017-12-01T20:19:26.657Z,29.48
2017-12-01T20:21:53.590Z,29.25
2017-12-01T20:24:21.270Z,30.60
2017-12-01T20:26:48.175Z,29.15
2017-12-01T20:29:15.116Z,26.83
2017-12-01T20:31:42.012Z,28.48
2017-12-01T20:34:08.962Z,27.90
2017-12-01T20:36:38.812Z,27.33
2017-12-01T20:39:05.715Z,27.20
2017-12-01T20:41:33.443Z,27.40
2017-12-01T20:44:01.124Z,27.35
2017-12-01T20:46:28.007Z,25.80
2017-12-01T20:48:55.280Z,24.80
2017-12-01T20:51:22.198Z,28.92
2017-12-01T20:53:49.097Z,28.02
2017-12-01T20:56:17.031Z,26.33
2017-12-01T20:58:45.725Z,28.98
2017-12-01T21:01:12.588Z,27.62
2017-12-01T21:03:40.263Z,28.40
2017-12-01T21:06:07.189Z,26.87
2017-12-01T21:08:34.104Z,27.60
2017-12-01T21:11:01.074Z,26.60
2017-12-01T21:13:27.979Z,27.13
2017-12-01T21:15:54.923Z,28.60
2017-12-01T21:18:21.864Z,28.55
2017-12-01T21:20:48.792Z,23.67
2017-12-01T21:23:15.692Z,23.77
2017-12-01T21:25:43.379Z,21.30
2017-12-01T21:28:11.072Z,20.05
2017-12-01T21:30:38.027Z,21.45
2017-12-01T21:33:04.908Z,19.02
2017-12-01T21:35:31.902Z,16.98
2017-12-01T21:37:58.847Z,19.10
2017-12-01T21:40:25.831Z,18.10
2017-12-01T21:42:52.803Z,18.90
2017-12-01T21:45:20.527Z,18.37
2017-12-01T21:47:47.550Z,19.87
2017-12-01T21:50:14.479Z,18.15
2017-12-01T21:52:41.575Z,22.45
2017-12-01T21:55:08.628Z,24.52
2017-12-01T21:57:35.575Z,24.25
2017-12-01T22:00:03.267Z,23.87
2017-12-01T22:02:30.879Z,23.83
2017-12-01T22:04:57.799Z,23.80
2017-12-01T22:07:24.668Z,23.50
2017-12-01T22:09:51.569Z,23.95
2017-12-01T22:12:18.472Z,24.05
2017-12-01T22:14:45.359Z,22.33
2017-12-01T22:17:12.260Z,24.10
2017-12-01T22:19:39.126Z,21.92
2017-12-01T22:22:05.993Z,21.58
2017-12-01T22:24:32.985Z,23.45
2017-12-01T22:26:59.909Z,22.67
2017-12-01T22:29:26.753Z,23.20
2017-12-01T22:31:53.673Z,21.67
2017-12-01T22:34:20.572Z,22.20
2017-12-01T22:36:47.517Z,23.23
2017-12-01T22:39:14.391Z,22.02
2017-12-01T22:41:42.016Z,23.50
2017-12-01T22:44:08.919Z,23.48
2017-12-01T22:46:36.567Z,24.48
2017-12-01T22:49:10.455Z,21.15
2017-12-01T22:51:38.108Z,21.83
2017-12-01T22:54:05.788Z,18.35
2017-12-01T22:56:33.452Z,19.40
2017-12-01T22:59:01.084Z,18.60
2017-12-01T23:01:28.005Z,19.65
2017-12-01T23:03:54.891Z,17.95
2017-12-01T23:06:22.604Z,19.15
2017-12-01T23:08:49.472Z,19.80
2017-12-01T23:11:16.379Z,17.33
2017-12-01T23:13:43.234Z,15.48
2017-12-01T23:16:10.131Z,19.37
2017-12-01T23:18:36.997Z,17.55
2017-12-01T23:21:03.915Z,18.85
2017-12-01T23:23:31.535Z,17.50
2017-12-01T23:25:58.414Z,17.77
2017-12-01T23:28:26.052Z,16.30
2017-12-01T23:30:52.894Z,15.95
2017-12-01T23:33:19.789Z,16.30
2017-12-01T23:35:46.652Z,16.70
2017-12-01T23:38:13.512Z,15.23
2017-12-01T23:40:40.456Z,18.27
2017-12-01T23:43:07.350Z,15.32
2017-12-01T23:45:35.024Z,19.00
2017-12-01T23:48:02.015Z,18.02
2017-12-01T23:50:28.899Z,17.98
2017-12-01T23:52:56.475Z,17.98
2017-12-01T23:55:23.420Z,17.05
2017-12-01T23:57:51.031Z,16.73
